Time;durP1;ratioP1;P1;durP2;ratioP2;P2;SDS_P1;SDS_P2;PMS_P1;PMS_P2;Temp;Humidity;BMP_temperature;BMP_pressure;BME280_temperature;BME280_humidity;BME280_pressure;Samples;Min_cycle;Max_cycle;Signal;HPM_P1;HPM_P2
2020/12/13 00:00:24;;;;;;;7.60;6.80;;;7.10;99.90;;;;;;4971651;28;20439;-70
2020/12/13 00:02:49;;;;;;;7.27;6.57;;;7.10;99.90;;;;;;4971072;28;20432;-70
2020/12/13 00:05:15;;;;;;;6.93;6.07;;;7.10;99.90;;;;;;4972078;28;20462;-70
2020/12/13 00:07:40;;;;;;;8.07;6.37;;;7.10;99.90;;;;;;4971066;28;20634;-66
2020/12/13 00:10:06;;;;;;;6.60;5.83;;;7.10;99.90;;;;;;4971822;28;20199;-69
2020/12/13 00:12:31;;;;;;;7.00;6.40;;;7.20;99.90;;;;;;4971442;28;20180;-70
2020/12/13 00:14:57;;;;;;;6.43;5.83;;;7.20;99.90;;;;;;4971664;28;20655;-70
2020/12/13 00:17:22;;;;;;;6.23;5.73;;;7.20;99.90;;;;;;4971541;28;20610;-67
2020/12/13 00:19:48;;;;;;;9.10;7.40;;;7.20;99.90;;;;;;4971167;28;20685;-70
2020/12/13 00:22:13;;;;;;;7.27;5.90;;;7.20;99.90;;;;;;4971584;28;20184;-70
2020/12/13 00:24:39;;;;;;;6.53;5.93;;;7.20;99.90;;;;;;4970803;28;20247;-70
2020/12/13 00:27:04;;;;;;;6.50;5.80;;;7.20;99.90;;;;;;4971324;28;20183;-70
2020/12/13 00:29:30;;;;;;;5.43;4.93;;;7.10;99.90;;;;;;4972181;28;20747;-70
2020/12/13 00:31:56;;;;;;;7.07;6.23;;;7.10;99.90;;;;;;4973231;28;20231;-70
2020/12/13 00:34:21;;;;;;;5.90;5.30;;;7.10;99.90;;;;;;4974857;28;20224;-70
2020/12/13 00:36:51;;;;;;;7.07;5.90;;;7.10;99.90;;;;;;4974878;28;20199;-68
2020/12/13 00:39:17;;;;;;;5.23;4.80;;;7.10;99.90;;;;;;4974000;28;20165;-68
2020/12/13 00:41:51;;;;;;;7.60;6.00;;;7.10;99.90;;;;;;4974724;28;20427;-68
2020/12/13 00:44:17;;;;;;;5.77;5.23;;;7.10;99.90;;;;;;4973414;28;20869;-70
2020/12/13 00:46:43;;;;;;;9.20;6.43;;;7.10;99.90;;;;;;4974715;28;20470;-70
2020/12/13 00:49:08;;;;;;;5.10;4.67;;;7.00;99.90;;;;;;4974221;28;20466;-70
2020/12/13 00:51:34;;;;;;;5.20;4.77;;;7.00;99.90;;;;;;4974814;28;20176;-68
2020/12/13 00:53:59;;;;;;;5.30;4.90;;;7.00;99.90;;;;;;4974263;28;20295;-68
2020/12/13 00:56:25;;;;;;;4.67;4.27;;;7.00;99.90;;;;;;4974160;28;20227;-70
2020/12/13 00:58:50;;;;;;;5.90;5.40;;;7.00;99.90;;;;;;4974012;28;20600;-69
2020/12/13 01:01:16;;;;;;;6.13;5.60;;;7.00;99.90;;;;;;4974273;28;20181;-70
2020/12/13 01:03:41;;;;;;;10.27;6.50;;;7.00;99.90;;;;;;4974489;28;20259;-70
2020/12/13 01:06:07;;;;;;;6.63;4.90;;;7.00;99.90;;;;;;4973165;28;20169;-70
2020/12/13 01:08:33;;;;;;;5.97;5.23;;;7.00;99.90;;;;;;4973560;28;20311;-70
2020/12/13 01:10:58;;;;;;;5.33;4.83;;;6.90;99.90;;;;;;4974149;28;20172;-70
2020/12/13 01:13:24;;;;;;;5.33;4.83;;;6.90;99.90;;;;;;4974378;28;20794;-69
2020/12/13 01:15:51;;;;;;;5.20;4.70;;;6.90;99.90;;;;;;4973643;28;20212;-69
2020/12/13 01:18:17;;;;;;;4.40;3.83;;;6.90;99.90;;;;;;4973740;28;20183;-70
2020/12/13 01:20:43;;;;;;;5.00;4.60;;;6.90;99.90;;;;;;4974017;28;20432;-69
2020/12/13 01:23:08;;;;;;;4.30;3.97;;;6.90;99.90;;;;;;4972413;28;20199;-70
2020/12/13 01:25:34;;;;;;;5.07;4.57;;;6.90;99.90;;;;;;4973932;28;20451;-70
2020/12/13 01:27:59;;;;;;;4.80;4.40;;;6.90;99.90;;;;;;4973374;28;20176;-68
2020/12/13 01:30:25;;;;;;;4.80;4.40;;;6.80;99.90;;;;;;4973748;28;20184;-70
2020/12/13 01:32:50;;;;;;;5.03;4.47;;;6.80;99.90;;;;;;4973481;28;20187;-69
2020/12/13 01:35:16;;;;;;;4.93;4.53;;;6.80;99.90;;;;;;4973946;28;20743;-70
2020/12/13 01:37:42;;;;;;;5.33;4.87;;;6.80;99.90;;;;;;4973130;28;20208;-68
2020/12/13 01:40:08;;;;;;;5.40;4.90;;;6.80;99.90;;;;;;4973338;28;20176;-70
2020/12/13 01:42:41;;;;;;;4.67;4.27;;;6.80;99.90;;;;;;4973410;28;20168;-70
2020/12/13 01:45:10;;;;;;;6.27;5.67;;;6.80;99.90;;;;;;4973828;28;20502;-70
2020/12/13 01:47:35;;;;;;;6.37;5.77;;;6.80;99.90;;;;;;4973160;28;20435;-69
2020/12/13 01:50:02;;;;;;;4.87;4.47;;;6.80;99.90;;;;;;4973289;28;20446;-70
2020/12/13 01:52:42;;;;;;;5.23;4.73;;;6.80;99.90;;;;;;4973509;28;20259;-70
2020/12/13 01:55:10;;;;;;;5.67;5.17;;;6.80;99.90;;;;;;4973349;28;20455;-71
2020/12/13 01:57:40;;;;;;;4.80;4.40;;;6.90;99.90;;;;;;4972908;28;20529;-69
2020/12/13 02:00:11;;;;;;;6.53;4.77;;;6.90;99.90;;;;;;4973490;28;20435;-70
2020/12/13 02:02:59;;;;;;;5.03;4.63;;;7.00;99.90;;;;;;4973374;28;20435;-69
2020/12/13 02:05:25;;;;;;;5.20;4.77;;;6.90;99.90;;;;;;4973265;28;20463;-70
2020/12/13 02:07:54;;;;;;;6.50;5.90;;;6.90;99.90;;;;;;4973260;28;20436;-70
2020/12/13 02:10:20;;;;;;;5.23;4.73;;;6.90;99.90;;;;;;4973042;28;20443;-69
2020/12/13 02:12:46;;;;;;;5.30;4.77;;;6.90;99.90;;;;;;4973012;28;20482;-69
2020/12/13 02:15:11;;;;;;;5.73;5.23;;;6.90;99.90;;;;;;4972856;28;20487;-69
2020/12/13 02:17:37;;;;;;;5.47;4.83;;;6.90;99.90;;;;;;4972722;28;20283;-70
2020/12/13 02:20:11;;;;;;;6.60;6.00;;;6.90;99.90;;;;;;4972620;28;20173;-70
2020/12/13 02:22:48;;;;;;;8.60;6.30;;;6.90;99.90;;;;;;4973062;28;20175;-70
2020/12/13 02:25:17;;;;;;;5.93;5.03;;;6.90;99.90;;;;;;4972820;28;20521;-68
2020/12/13 02:27:43;;;;;;;5.17;4.77;;;7.00;99.90;;;;;;4970815;28;20427;-70
2020/12/13 02:30:09;;;;;;;4.87;4.47;;;6.90;99.90;;;;;;4972509;28;20435;-70
2020/12/13 02:32:35;;;;;;;6.87;6.17;;;7.00;99.90;;;;;;4972422;28;20184;-70
2020/12/13 02:35:02;;;;;;;4.20;3.90;;;7.00;99.90;;;;;;4972829;28;20548;-68
2020/12/13 02:37:28;;;;;;;4.97;4.57;;;7.00;99.90;;;;;;4972786;28;20525;-68
2020/12/13 02:39:54;;;;;;;4.67;4.27;;;7.10;99.90;;;;;;4972233;28;20979;-68
2020/12/13 02:42:19;;;;;;;5.57;4.30;;;7.10;99.90;;;;;;4972512;28;20435;-68
2020/12/13 02:44:45;;;;;;;4.63;4.23;;;7.10;99.90;;;;;;4972291;28;20208;-68
2020/12/13 02:47:10;;;;;;;5.27;4.43;;;7.20;99.90;;;;;;4972391;28;20579;-68
2020/12/13 02:49:39;;;;;;;4.37;3.97;;;7.20;99.90;;;;;;4971991;28;20545;-69
2020/12/13 02:52:05;;;;;;;4.10;3.80;;;7.20;99.90;;;;;;4971999;28;20184;-68
2020/12/13 02:54:30;;;;;;;4.80;4.30;;;7.20;99.90;;;;;;4971676;28;20455;-69
2020/12/13 02:56:56;;;;;;;4.87;4.43;;;7.20;99.90;;;;;;4972090;28;20227;-68
2020/12/13 02:59:21;;;;;;;4.17;3.87;;;7.20;99.90;;;;;;4971909;28;20258;-68
2020/12/13 03:01:47;;;;;;;6.07;5.47;;;7.30;99.90;;;;;;4972403;28;20177;-68
2020/12/13 03:04:12;;;;;;;5.10;4.60;;;7.20;99.90;;;;;;4972049;28;20207;-68
2020/12/13 03:06:38;;;;;;;4.30;4.00;;;7.20;99.90;;;;;;4971959;28;20195;-68
2020/12/13 03:09:03;;;;;;;4.73;4.33;;;7.20;99.90;;;;;;4971753;28;20206;-68
2020/12/13 03:11:29;;;;;;;4.53;3.20;;;7.20;99.90;;;;;;4971925;28;20183;-68
2020/12/13 03:13:55;;;;;;;4.33;3.93;;;7.20;99.90;;;;;;4971996;28;20208;-68
2020/12/13 03:16:20;;;;;;;4.87;4.43;;;7.20;99.90;;;;;;4971556;28;20474;-68
2020/12/13 03:18:46;;;;;;;4.67;4.27;;;7.20;99.90;;;;;;4971064;28;20246;-68
2020/12/13 03:21:12;;;;;;;5.57;4.40;;;7.20;99.90;;;;;;4971930;28;20212;-68
2020/12/13 03:23:37;;;;;;;4.63;4.23;;;7.20;99.90;;;;;;4971673;28;20180;-68
2020/12/13 03:26:03;;;;;;;5.17;4.60;;;7.20;99.90;;;;;;4971754;28;20191;-69
2020/12/13 03:28:29;;;;;;;5.70;4.60;;;7.20;99.90;;;;;;4971439;28;20177;-68
2020/12/13 03:30:54;;;;;;;8.73;5.43;;;7.20;99.90;;;;;;4971780;28;20188;-68
2020/12/13 03:33:20;;;;;;;4.90;4.40;;;7.20;99.90;;;;;;4971813;28;20195;-68
2020/12/13 03:35:45;;;;;;;4.00;3.70;;;7.10;99.90;;;;;;4971508;28;20643;-69
2020/12/13 03:38:11;;;;;;;4.07;3.77;;;7.00;99.90;;;;;;4971310;28;20203;-68
2020/12/13 03:40:36;;;;;;;5.37;4.87;;;7.00;99.90;;;;;;4971523;28;20708;-68
2020/12/13 03:43:02;;;;;;;4.83;4.33;;;7.10;99.90;;;;;;4972043;28;20231;-68
2020/12/13 03:45:28;;;;;;;5.20;4.70;;;7.00;99.90;;;;;;4971490;28;20184;-69
2020/12/13 03:47:53;;;;;;;4.90;4.40;;;7.10;99.90;;;;;;4971212;28;20566;-68
2020/12/13 03:50:19;;;;;;;5.97;5.37;;;7.00;99.90;;;;;;4971643;28;20184;-68
2020/12/13 03:52:44;;;;;;;4.50;4.20;;;7.00;99.90;;;;;;4971704;28;20624;-68
2020/12/13 03:55:10;;;;;;;4.13;3.83;;;7.00;99.90;;;;;;4970998;28;20231;-68
2020/12/13 03:57:35;;;;;;;5.20;4.70;;;6.90;99.90;;;;;;4971109;28;20207;-69
2020/12/13 04:00:03;;;;;;;4.80;4.40;;;6.90;99.90;;;;;;4971964;28;20181;-69
2020/12/13 04:02:28;;;;;;;5.93;4.50;;;6.90;99.90;;;;;;4971965;28;20179;-69
2020/12/13 04:04:54;;;;;;;8.63;5.60;;;6.90;99.90;;;;;;4974313;28;20443;-68
2020/12/13 04:07:19;;;;;;;7.33;6.23;;;6.90;99.90;;;;;;4976037;28;20548;-68
2020/12/13 04:09:45;;;;;;;6.90;6.20;;;6.90;99.90;;;;;;4975167;28;20211;-68
2020/12/13 04:12:10;;;;;;;6.57;5.80;;;6.90;99.90;;;;;;4975169;28;20219;-68
2020/12/13 04:14:36;;;;;;;6.33;5.70;;;6.90;99.90;;;;;;4975486;28;20612;-68
2020/12/13 04:17:01;;;;;;;6.73;6.03;;;6.90;99.90;;;;;;4975229;28;20216;-68
2020/12/13 04:19:27;;;;;;;5.90;5.30;;;7.00;99.90;;;;;;4975002;28;20208;-68
2020/12/13 04:21:53;;;;;;;5.90;5.13;;;7.00;99.90;;;;;;4975283;28;20180;-68
2020/12/13 04:24:18;;;;;;;8.83;5.77;;;6.90;99.90;;;;;;4975358;28;20192;-68
2020/12/13 04:26:44;;;;;;;6.23;5.73;;;7.00;99.90;;;;;;4974887;28;20609;-68
2020/12/13 04:29:10;;;;;;;6.73;6.23;;;7.00;99.90;;;;;;4974823;28;20196;-69
2020/12/13 04:31:35;;;;;;;7.10;5.13;;;7.00;99.90;;;;;;4975149;28;20804;-68
2020/12/13 04:34:01;;;;;;;5.40;4.80;;;7.00;99.90;;;;;;4975052;28;20211;-68
2020/12/13 04:36:26;;;;;;;5.30;4.90;;;6.90;99.90;;;;;;4975012;28;20208;-68
2020/12/13 04:38:52;;;;;;;4.97;4.47;;;6.90;99.90;;;;;;4974191;28;20187;-68
2020/12/13 04:41:17;;;;;;;6.73;6.23;;;6.90;99.90;;;;;;4973054;28;20177;-68
2020/12/13 04:43:43;;;;;;;6.77;5.00;;;6.90;99.90;;;;;;4974864;28;20272;-68
2020/12/13 04:46:09;;;;;;;5.00;4.50;;;6.90;99.90;;;;;;4974445;28;20181;-68
2020/12/13 04:48:36;;;;;;;5.97;4.77;;;6.90;99.90;;;;;;4974013;28;20546;-68
2020/12/13 04:51:03;;;;;;;5.50;5.00;;;6.90;99.90;;;;;;4974637;28;20965;-68
2020/12/13 04:53:29;;;;;;;8.70;4.70;;;6.90;99.90;;;;;;4974554;28;20771;-68
2020/12/13 04:55:58;;;;;;;5.03;4.63;;;7.00;99.90;;;;;;4974065;28;20474;-68
2020/12/13 04:58:25;;;;;;;4.43;4.03;;;7.00;99.90;;;;;;4973879;28;20238;-68
2020/12/13 05:00:58;;;;;;;4.80;3.90;;;7.00;99.90;;;;;;4974277;28;20982;-68
2020/12/13 05:03:25;;;;;;;4.90;4.50;;;7.00;99.90;;;;;;4959044;28;20431;-68
2020/12/13 05:05:51;;;;;;;4.50;4.10;;;7.00;99.90;;;;;;4973779;28;20448;-68
2020/12/13 05:08:17;;;;;;;4.70;4.30;;;7.00;99.90;;;;;;4974237;28;20446;-68
2020/12/13 05:10:43;;;;;;;5.83;3.90;;;7.00;99.90;;;;;;4974245;28;20434;-68
2020/12/13 05:13:10;;;;;;;3.97;3.67;;;7.00;99.90;;;;;;4973962;28;20917;-68
2020/12/13 05:15:37;;;;;;;4.70;3.47;;;7.00;99.90;;;;;;4972255;28;20300;-68
2020/12/13 05:18:04;;;;;;;4.07;3.77;;;7.00;99.90;;;;;;4973772;28;20455;-68
2020/12/13 05:20:30;;;;;;;4.10;3.70;;;7.10;99.90;;;;;;4974218;28;20498;-68
2020/12/13 05:22:57;;;;;;;3.90;3.57;;;7.10;99.90;;;;;;4974409;28;20451;-68
2020/12/13 05:25:32;;;;;;;3.23;3.03;;;7.10;99.90;;;;;;4974202;28;20200;-68
2020/12/13 05:28:04;;;;;;;3.00;2.80;;;7.00;99.90;;;;;;4973552;28;20431;-68
2020/12/13 05:30:39;;;;;;;3.70;3.40;;;7.00;99.90;;;;;;4974110;28;20431;-68
2020/12/13 05:35:48;;;;;;;4.20;3.40;;;7.00;99.90;;;;;;4970990;28;20475;-68
2020/12/13 05:38:16;;;;;;;3.90;3.50;;;7.00;99.90;;;;;;4973646;28;20502;-68
2020/12/13 05:40:42;;;;;;;3.40;3.10;;;7.00;99.90;;;;;;4974161;28;20180;-68
2020/12/13 05:43:21;;;;;;;4.20;3.80;;;7.00;99.90;;;;;;4974487;28;20953;-68
2020/12/13 05:53:17;;;;;;;3.30;3.00;;;7.10;99.90;;;;;;4954508;29;20957;-68
2020/12/13 05:55:43;;;;;;;3.20;2.83;;;7.10;99.90;;;;;;4954151;28;20829;-68
2020/12/13 05:58:09;;;;;;;3.30;3.00;;;7.10;99.90;;;;;;4952881;29;20512;-68
2020/12/13 06:00:35;;;;;;;3.20;2.90;;;7.10;99.90;;;;;;4954051;28;20173;-68
2020/12/13 06:03:04;;;;;;;3.90;3.53;;;7.10;99.90;;;;;;4953870;28;20421;-68
2020/12/13 06:05:34;;;;;;;4.60;2.97;;;7.10;99.90;;;;;;4954071;29;20484;-68
2020/12/13 06:08:02;;;;;;;3.53;3.33;;;7.10;99.90;;;;;;4953673;29;20468;-68
2020/12/13 06:10:33;;;;;;;3.80;3.50;;;7.10;99.90;;;;;;4953872;29;21001;-68
2020/12/13 06:13:09;;;;;;;3.60;3.30;;;7.10;99.90;;;;;;4953992;29;20531;-68
2020/12/13 06:15:35;;;;;;;4.03;2.40;;;7.00;99.90;;;;;;4953837;29;20490;-68
2020/12/13 06:18:05;;;;;;;3.23;2.93;;;7.00;99.90;;;;;;4953193;29;20977;-68
2020/12/13 06:20:32;;;;;;;4.90;3.10;;;7.00;99.90;;;;;;4953990;29;20433;-68
2020/12/13 06:23:00;;;;;;;2.93;2.73;;;7.00;99.90;;;;;;4953865;28;20433;-68
2020/12/13 06:25:26;;;;;;;2.83;2.63;;;7.00;99.90;;;;;;4953872;29;20977;-68
2020/12/13 06:27:52;;;;;;;3.10;2.80;;;7.00;99.90;;;;;;4953035;28;20865;-69
2020/12/13 06:30:19;;;;;;;5.60;3.20;;;7.00;99.90;;;;;;4953277;29;20428;-68
2020/12/13 06:32:47;;;;;;;4.20;3.80;;;7.00;99.90;;;;;;4953626;29;20531;-68
2020/12/13 06:35:13;;;;;;;3.90;3.53;;;7.00;99.90;;;;;;4952757;29;20480;-68
2020/12/13 06:37:40;;;;;;;3.10;2.80;;;7.00;99.90;;;;;;4952889;28;20569;-68
2020/12/13 06:40:07;;;;;;;3.90;3.60;;;7.00;99.90;;;;;;4952877;29;20468;-69
2020/12/13 06:42:42;;;;;;;3.20;3.00;;;7.00;99.90;;;;;;4953079;29;20451;-68
2020/12/13 06:45:10;;;;;;;5.33;3.20;;;7.10;99.90;;;;;;4952663;29;20482;-68
2020/12/13 06:47:40;;;;;;;2.83;2.63;;;7.10;99.90;;;;;;4952880;29;20444;-68
2020/12/13 06:50:09;;;;;;;3.13;2.83;;;7.10;99.90;;;;;;4953016;28;20480;-68
2020/12/13 06:52:35;;;;;;;2.50;2.30;;;7.10;99.90;;;;;;4953177;28;20467;-68
2020/12/13 06:55:03;;;;;;;2.63;2.43;;;7.10;99.90;;;;;;4952617;29;20452;-68
2020/12/13 06:57:31;;;;;;;2.87;2.50;;;7.10;99.90;;;;;;4953055;29;20483;-68
2020/12/13 06:59:57;;;;;;;2.67;2.30;;;7.10;99.90;;;;;;4952953;29;20995;-68
2020/12/13 07:02:53;;;;;;;2.60;2.40;;;7.20;99.90;;;;;;4953105;28;20713;-68
2020/12/13 07:05:19;;;;;;;3.40;2.70;;;7.20;99.90;;;;;;4952832;29;20847;-68
2020/12/13 07:07:51;;;;;;;2.70;2.50;;;7.20;99.90;;;;;;4952757;29;20440;-68
2020/12/13 07:10:16;;;;;;;2.77;2.50;;;7.20;99.90;;;;;;4952805;28;20662;-68
2020/12/13 07:12:51;;;;;;;1.93;1.63;;;7.20;99.90;;;;;;4953341;29;20432;-68
2020/12/13 07:15:26;;;;;;;3.20;2.20;;;7.20;99.90;;;;;;4952823;28;20625;-68
2020/12/13 07:17:53;;;;;;;2.60;2.40;;;7.10;99.90;;;;;;4952599;29;20475;-68
2020/12/13 07:20:19;;;;;;;2.73;2.53;;;7.20;99.90;;;;;;4952604;29;20444;-68
2020/12/13 07:22:45;;;;;;;2.53;2.33;;;7.10;99.90;;;;;;4952934;28;20451;-68
2020/12/13 07:25:11;;;;;;;2.70;2.50;;;7.20;99.90;;;;;;4952334;29;20463;-68
2020/12/13 07:27:37;;;;;;;2.90;2.70;;;7.10;99.90;;;;;;4952731;29;20189;-69
2020/12/13 07:30:03;;;;;;;2.10;2.00;;;7.10;99.90;;;;;;4952533;29;20247;-68
2020/12/13 07:32:29;;;;;;;2.90;2.70;;;7.10;99.90;;;;;;4952538;28;20928;-69
2020/12/13 07:34:54;;;;;;;2.47;2.00;;;7.00;99.90;;;;;;4952233;29;20475;-69
2020/12/13 07:37:21;;;;;;;2.50;2.30;;;7.00;99.90;;;;;;4952587;29;20244;-69
2020/12/13 07:39:46;;;;;;;2.50;2.30;;;6.90;99.90;;;;;;4951532;28;20181;-68
2020/12/13 07:42:13;;;;;;;3.23;2.83;;;7.00;99.90;;;;;;4952178;29;20464;-68
2020/12/13 07:44:41;;;;;;;2.60;2.40;;;7.00;99.90;;;;;;4952161;28;20227;-68
2020/12/13 07:47:06;;;;;;;2.60;2.40;;;7.00;99.90;;;;;;4952488;28;21153;-68
2020/12/13 07:49:32;;;;;;;2.70;2.50;;;7.00;99.90;;;;;;4951816;28;20527;-69
2020/12/13 07:51:57;;;;;;;3.13;2.83;;;7.00;99.90;;;;;;4952202;28;20199;-68
2020/12/13 07:54:30;;;;;;;2.27;2.07;;;7.00;99.90;;;;;;4952035;29;20193;-68
2020/12/13 07:57:18;;;;;;;6.40;2.87;;;7.00;99.90;;;;;;4952235;28;20205;-69
2020/12/13 07:59:43;;;;;;;3.53;2.77;;;7.00;99.90;;;;;;4952153;28;20432;-68
2020/12/13 08:02:11;;;;;;;4.77;4.37;;;7.00;99.90;;;;;;4952028;29;20810;-68
2020/12/13 08:04:41;;;;;;;3.30;3.00;;;7.00;99.90;;;;;;4951959;28;20288;-68
2020/12/13 08:07:10;;;;;;;9.93;4.10;;;7.10;99.90;;;;;;4951784;28;20986;-68
2020/12/13 08:09:41;;;;;;;3.50;3.20;;;7.10;99.90;;;;;;4951866;29;20870;-68
2020/12/13 08:12:11;;;;;;;7.93;3.40;;;7.10;99.90;;;;;;4951962;28;20523;-68
2020/12/13 08:14:37;;;;;;;3.73;3.40;;;7.10;99.90;;;;;;4951414;28;20907;-68
2020/12/13 08:17:02;;;;;;;3.67;3.37;;;7.20;99.90;;;;;;4951182;28;20476;-68
2020/12/13 08:19:41;;;;;;;3.77;3.37;;;7.20;99.90;;;;;;4951457;28;20227;-68
2020/12/13 08:22:13;;;;;;;6.23;3.13;;;7.10;99.90;;;;;;4952078;28;20185;-68
2020/12/13 08:24:39;;;;;;;4.77;3.27;;;7.20;99.90;;;;;;4951487;29;20463;-68
2020/12/13 08:27:06;;;;;;;3.90;3.60;;;7.20;99.90;;;;;;4951460;29;20580;-68
2020/12/13 08:29:32;;;;;;;4.90;3.60;;;7.20;99.90;;;;;;4950980;29;20663;-68
2020/12/13 08:32:00;;;;;;;3.00;2.70;;;7.20;99.90;;;;;;4951737;28;20486;-68
2020/12/13 08:34:32;;;;;;;4.57;4.17;;;7.20;99.90;;;;;;4951338;28;20469;-67
2020/12/13 08:36:59;;;;;;;4.10;3.00;;;7.30;99.90;;;;;;4952069;29;20943;-67
2020/12/13 08:39:33;;;;;;;4.07;3.70;;;7.40;99.90;;;;;;4951571;28;20428;-67
2020/12/13 08:42:00;;;;;;;4.70;3.37;;;7.50;99.90;;;;;;4951553;28;20515;-68
2020/12/13 08:44:36;;;;;;;5.37;4.20;;;7.50;99.90;;;;;;4951204;28;20460;-67
2020/12/13 08:47:03;;;;;;;4.10;3.50;;;7.50;99.90;;;;;;4951498;28;20455;-74
2020/12/13 08:49:33;;;;;;;3.57;3.27;;;7.60;99.90;;;;;;4951187;28;20779;-68
2020/12/13 08:52:34;;;;;;;4.90;4.07;;;7.60;99.90;;;;;;4954795;29;20530;-71
2020/12/13 08:55:05;;;;;;;5.93;5.30;;;7.70;99.90;;;;;;4943786;28;20895;-67
2020/12/13 08:57:36;;;;;;;5.20;4.23;;;7.80;99.90;;;;;;4954923;28;20525;-68
2020/12/13 09:00:15;;;;;;;8.90;4.97;;;7.80;99.90;;;;;;4955139;28;20436;-67
2020/12/13 09:02:55;;;;;;;5.88;5.30;;;8.00;99.90;;;;;;4954598;29;20438;-68
2020/12/13 09:05:31;;;;;;;6.60;4.80;;;8.10;99.90;;;;;;4940369;29;20709;-67
2020/12/13 09:07:58;;;;;;;4.73;4.33;;;8.10;99.90;;;;;;4953746;29;20511;-68
2020/12/13 09:10:25;;;;;;;6.47;5.30;;;8.20;99.90;;;;;;4955288;28;21029;-67
2020/12/13 09:12:50;;;;;;;4.57;4.27;;;8.20;99.90;;;;;;4954710;28;20436;-67
2020/12/13 09:15:23;;;;;;;4.40;4.00;;;8.20;99.90;;;;;;4954679;28;20973;-67
2020/12/13 09:17:53;;;;;;;4.37;3.53;;;8.20;99.90;;;;;;4954391;28;20267;-66
2020/12/13 09:20:31;;;;;;;5.20;4.20;;;8.10;99.90;;;;;;4954650;28;20448;-67
2020/12/13 09:23:20;;;;;;;5.30;4.50;;;8.10;99.90;;;;;;4954474;28;20467;-66
2020/12/13 09:25:48;;;;;;;5.37;4.60;;;8.30;99.90;;;;;;4953804;29;20475;-68
2020/12/13 09:28:15;;;;;;;6.67;5.37;;;8.30;99.90;;;;;;4953201;29;20985;-67
2020/12/13 09:30:41;;;;;;;6.93;6.03;;;8.30;99.90;;;;;;4954145;28;20432;-68
2020/12/13 09:33:08;;;;;;;6.70;6.03;;;8.30;99.90;;;;;;4954650;28;20787;-69
2020/12/13 09:35:34;;;;;;;5.97;5.33;;;8.40;99.90;;;;;;4954324;29;20843;-69
2020/12/13 09:38:02;;;;;;;5.17;4.77;;;8.40;99.90;;;;;;4953732;28;20922;-68
2020/12/13 09:40:28;;;;;;;7.10;4.90;;;8.50;99.90;;;;;;4951317;29;20487;-68
2020/12/13 09:42:54;;;;;;;6.13;5.23;;;8.60;99.90;;;;;;4954473;28;20460;-68
2020/12/13 09:45:21;;;;;;;4.83;4.37;;;8.70;99.90;;;;;;4954570;28;20535;-68
2020/12/13 09:47:46;;;;;;;5.43;4.93;;;8.70;99.90;;;;;;4954022;29;20436;-68
2020/12/13 09:50:12;;;;;;;5.40;4.03;;;8.70;99.90;;;;;;4953768;29;21013;-68
2020/12/13 09:52:38;;;;;;;7.00;4.67;;;8.80;99.90;;;;;;4950660;28;20189;-68
2020/12/13 09:55:05;;;;;;;6.60;5.00;;;9.00;99.90;;;;;;4942341;29;20456;-68
2020/12/13 09:57:30;;;;;;;4.23;3.83;;;9.20;99.90;;;;;;4953886;29;20286;-68
2020/12/13 09:59:56;;;;;;;5.13;4.60;;;9.30;99.90;;;;;;4954218;29;20432;-68
2020/12/13 10:02:22;;;;;;;4.77;4.37;;;9.40;99.90;;;;;;4953925;28;20169;-68
2020/12/13 10:04:47;;;;;;;4.83;4.33;;;9.40;99.90;;;;;;4954311;28;20196;-68
2020/12/13 10:09:44;;;;;;;8.13;4.37;;;9.50;99.90;;;;;;4952630;29;20537;-70
2020/12/13 10:12:10;;;;;;;3.83;3.43;;;9.60;99.90;;;;;;4953753;29;20447;-67
2020/12/13 10:14:35;;;;;;;3.47;3.03;;;9.90;99.90;;;;;;4953885;28;20301;-68
2020/12/13 10:17:02;;;;;;;3.47;2.83;;;10.30;99.90;;;;;;4953901;28;20204;-68
2020/12/13 10:19:28;;;;;;;4.37;2.40;;;10.50;99.90;;;;;;4953857;28;20216;-68
2020/12/13 10:21:53;;;;;;;2.77;2.33;;;11.60;99.90;;;;;;4954106;29;20839;-68
2020/12/13 10:24:19;;;;;;;2.80;2.03;;;11.80;99.90;;;;;;4954016;29;20212;-68
2020/12/13 10:26:45;;;;;;;3.73;3.40;;;11.90;99.90;;;;;;4953991;28;20207;-68
2020/12/13 10:29:11;;;;;;;2.33;2.13;;;11.40;99.90;;;;;;4953312;28;20798;-68
2020/12/13 10:31:38;;;;;;;3.27;2.37;;;11.10;99.90;;;;;;4953424;28;20181;-66
2020/12/13 10:34:06;;;;;;;5.77;2.17;;;10.60;99.90;;;;;;4953303;28;20468;-66
2020/12/13 10:36:37;;;;;;;5.37;2.30;;;10.30;99.90;;;;;;4953527;28;20575;-66
2020/12/13 10:39:04;;;;;;;2.77;2.57;;;10.10;99.90;;;;;;4952976;28;20444;-66
2020/12/13 10:41:31;;;;;;;7.20;3.17;;;10.00;99.90;;;;;;4953113;29;20436;-66
2020/12/13 10:43:57;;;;;;;8.70;4.40;;;10.00;99.90;;;;;;4953455;29;20982;-65
2020/12/13 10:46:23;;;;;;;3.97;3.37;;;10.00;99.90;;;;;;4953725;29;20855;-65
2020/12/13 10:48:49;;;;;;;2.50;1.73;;;10.10;99.90;;;;;;4953212;29;20448;-66
2020/12/13 10:51:15;;;;;;;2.30;2.10;;;9.80;99.90;;;;;;4953484;29;20635;-68
2020/12/13 10:53:42;;;;;;;2.60;2.20;;;9.70;99.90;;;;;;4953068;28;20189;-68
2020/12/13 10:56:08;;;;;;;2.30;2.10;;;9.60;99.90;;;;;;4953309;28;22383;-68
2020/12/13 10:58:34;;;;;;;1.90;1.80;;;9.60;99.90;;;;;;4952687;28;21014;-68
2020/12/13 11:01:02;;;;;;;5.40;2.50;;;9.50;99.90;;;;;;4952973;28;20556;-68
2020/12/13 11:03:28;;;;;;;4.50;2.87;;;9.50;99.90;;;;;;4953050;29;20191;-67
2020/12/13 11:05:54;;;;;;;3.73;3.17;;;9.30;99.90;;;;;;4953084;29;20539;-68
2020/12/13 11:08:22;;;;;;;3.37;3.07;;;9.20;99.90;;;;;;4952505;29;20530;-68
2020/12/13 11:10:48;;;;;;;2.87;2.57;;;9.20;99.90;;;;;;4953056;28;20556;-68
2020/12/13 11:13:15;;;;;;;7.80;3.30;;;9.20;99.90;;;;;;4952511;28;20421;-68
2020/12/13 11:15:43;;;;;;;6.53;5.90;;;9.20;99.90;;;;;;4952774;28;20832;-68
2020/12/13 11:18:08;;;;;;;3.40;3.03;;;9.30;99.90;;;;;;4952488;28;20481;-68
2020/12/13 11:20:34;;;;;;;3.67;2.80;;;9.40;99.90;;;;;;4952768;28;20922;-68
2020/12/13 11:23:00;;;;;;;4.50;2.83;;;9.40;99.90;;;;;;4953029;28;20650;-68
2020/12/13 11:25:25;;;;;;;4.60;2.27;;;9.20;99.90;;;;;;4952612;29;20204;-68
2020/12/13 11:27:51;;;;;;;4.50;2.80;;;9.10;99.90;;;;;;4952193;29;20273;-68
2020/12/13 11:30:16;;;;;;;2.77;2.30;;;9.20;99.90;;;;;;4952774;29;20185;-68
2020/12/13 11:32:44;;;;;;;2.53;2.20;;;9.00;99.90;;;;;;4952440;29;20193;-67
2020/12/13 11:35:11;;;;;;;2.93;2.73;;;9.00;99.90;;;;;;4952335;29;20562;-67
2020/12/13 11:37:37;;;;;;;2.90;2.50;;;9.00;99.90;;;;;;4952304;28;20460;-68
2020/12/13 11:40:04;;;;;;;3.87;3.43;;;9.00;99.90;;;;;;4952487;28;20511;-68
2020/12/13 11:42:29;;;;;;;4.50;2.20;;;9.00;99.90;;;;;;4952357;28;20527;-68
2020/12/13 11:44:55;;;;;;;3.17;2.80;;;8.90;99.90;;;;;;4952140;29;20913;-68
2020/12/13 11:47:20;;;;;;;6.17;2.30;;;8.90;99.90;;;;;;4952447;29;20434;-68
2020/12/13 11:49:46;;;;;;;7.30;3.30;;;8.80;99.90;;;;;;4952154;29;20193;-68
2020/12/13 11:52:11;;;;;;;2.53;2.33;;;8.80;99.90;;;;;;4952381;29;20195;-68
2020/12/13 11:54:37;;;;;;;2.90;2.57;;;8.70;99.90;;;;;;4952141;29;20197;-69
2020/12/13 11:57:03;;;;;;;3.37;2.20;;;8.80;99.90;;;;;;4952250;29;20236;-68
2020/12/13 11:59:29;;;;;;;3.60;2.13;;;8.70;99.90;;;;;;4951976;29;20231;-68
2020/12/13 12:01:56;;;;;;;2.40;1.80;;;8.80;99.90;;;;;;4952403;28;20795;-68
2020/12/13 12:04:25;;;;;;;3.23;2.97;;;8.60;99.90;;;;;;4951973;29;20844;-66
2020/12/13 12:06:50;;;;;;;3.10;2.03;;;8.60;99.90;;;;;;4952379;29;20514;-67
2020/12/13 12:09:16;;;;;;;2.00;1.90;;;8.70;99.90;;;;;;4952037;28;20429;-68
2020/12/13 12:11:42;;;;;;;2.50;2.30;;;8.70;99.90;;;;;;4952136;29;20187;-68
2020/12/13 12:14:12;;;;;;;2.47;2.07;;;8.70;99.90;;;;;;4951873;28;20463;-68
2020/12/13 12:16:42;;;;;;;2.00;1.80;;;8.70;99.90;;;;;;4951853;29;21060;-68
2020/12/13 12:19:09;;;;;;;2.80;1.87;;;8.80;99.90;;;;;;4951941;28;20459;-69
2020/12/13 12:21:36;;;;;;;2.87;2.57;;;8.70;99.90;;;;;;4952151;29;20428;-68
2020/12/13 12:24:03;;;;;;;3.83;2.63;;;8.80;99.90;;;;;;4952305;29;20510;-68
2020/12/13 12:26:33;;;;;;;4.40;2.20;;;8.80;99.90;;;;;;4954915;28;20428;-68
2020/12/13 12:29:00;;;;;;;1.97;1.87;;;8.80;99.90;;;;;;4955866;29;20432;-68
2020/12/13 12:31:27;;;;;;;4.93;2.10;;;8.80;99.90;;;;;;4955915;28;20440;-68
2020/12/13 12:33:53;;;;;;;1.80;1.70;;;8.80;99.90;;;;;;4955861;28;20458;-69
2020/12/13 12:36:25;;;;;;;3.27;2.13;;;8.70;99.90;;;;;;4956003;29;20798;-68
2020/12/13 12:38:51;;;;;;;2.93;1.83;;;8.80;99.90;;;;;;4955108;29;20439;-68
2020/12/13 12:41:18;;;;;;;2.00;1.83;;;8.90;99.90;;;;;;4955737;28;20933;-68
2020/12/13 12:43:46;;;;;;;2.47;1.93;;;8.90;99.90;;;;;;4955609;28;20173;-68
2020/12/13 12:46:12;;;;;;;4.60;2.77;;;8.80;99.90;;;;;;4955492;29;20421;-69
2020/12/13 12:48:38;;;;;;;2.43;2.23;;;8.80;99.90;;;;;;4955017;28;20436;-67
2020/12/13 12:51:05;;;;;;;2.73;2.17;;;8.70;99.90;;;;;;4955532;28;20432;-66
2020/12/13 12:53:31;;;;;;;3.20;2.60;;;8.70;99.90;;;;;;4955191;29;20432;-67
2020/12/13 12:55:57;;;;;;;3.40;3.00;;;8.70;99.90;;;;;;4955168;29;21017;-66
2020/12/13 12:58:24;;;;;;;5.03;4.07;;;8.80;99.90;;;;;;4953899;28;20177;-67
2020/12/13 13:00:54;;;;;;;7.73;5.90;;;8.80;99.90;;;;;;4955254;28;20260;-66
2020/12/13 13:03:20;;;;;;;2.57;2.33;;;9.00;99.90;;;;;;4954746;28;20428;-66
2020/12/13 13:08:17;;;;;;;5.40;3.73;;;9.50;99.90;;;;;;4954153;29;20268;-66
2020/12/13 13:10:43;;;;;;;6.43;4.73;;;9.70;99.90;;;;;;4954352;29;20169;-68
2020/12/13 13:13:08;;;;;;;4.00;3.60;;;9.90;99.90;;;;;;4954355;29;20436;-68